sensor_id;sensor_type;location;lat;lon;timestamp;temperature;humidity
5743;DHT22;2896;53.500;10.020;2023-11-21T00:01:12;10.00;99.90
5743;DHT22;2896;53.500;10.020;2023-11-21T00:03:38;9.10;99.90
5743;DHT22;2896;53.500;10.020;2023-11-21T00:06:07;9.10;99.90
5743;DHT22;2896;53.500;10.020;2023-11-21T00:08:34;9.10;99.90
5743;DHT22;2896;53.500;10.020;2023-11-21T00:11:01;9.00;99.90
5743;DHT22;2896;53.500;10.020;2023-11-21T00:13:30;9.00;99.90
5743;DHT22;2896;53.500;10.020;2023-11-21T00:15:57;8.90;99.90
5743;DHT22;2896;53.500;10.020;2023-11-21T00:18:23;8.80;99.90
5743;DHT22;2896;53.500;10.020;2023-11-21T00:20:50;8.80;99.90
5743;DHT22;2896;53.500;10.020;2023-11-21T00:23:18;8.80;99.90
5743;DHT22;2896;53.500;10.020;2023-11-21T00:25:45;8.80;99.90
5743;DHT22;2896;53.500;10.020;2023-11-21T00:28:12;10.30;99.90
5743;DHT22;2896;53.500;10.020;2023-11-21T00:30:38;8.60;99.90
5743;DHT22;2896;53.500;10.020;2023-11-21T00:33:05;8.60;99.90
5743;DHT22;2896;53.500;10.020;2023-11-21T00:35:31;8.50;99.90
5743;DHT22;2896;53.500;10.020;2023-11-21T00:37:58;8.50;99.90
5743;DHT22;2896;53.500;10.020;2023-11-21T00:40:26;8.50;99.90
5743;DHT22;2896;53.500;10.020;2023-11-21T00:42:53;8.40;99.90
5743;DHT22;2896;53.500;10.020;2023-11-21T00:45:21;8.40;99.90
5743;DHT22;2896;53.500;10.020;2023-11-21T00:47:48;8.40;99.90
5743;DHT22;2896;53.500;10.020;2023-11-21T00:50:14;8.30;99.90
5743;DHT22;2896;53.500;10.020;2023-11-21T00:52:41;8.20;99.90
5743;DHT22;2896;53.500;10.020;2023-11-21T00:55:08;8.10;99.90
5743;DHT22;2896;53.500;10.020;2023-11-21T00:57:38;8.10;99.90
5743;DHT22;2896;53.500;10.020;2023-11-21T01:00:06;8.10;99.90
5743;DHT22;2896;53.500;10.020;2023-11-21T01:02:35;8.10;99.90
5743;DHT22;2896;53.500;10.020;2023-11-21T01:05:02;8.00;99.90
5743;DHT22;2896;53.500;10.020;2023-11-21T01:07:29;8.00;99.90
5743;DHT22;2896;53.500;10.020;2023-11-21T01:09:55;8.00;99.90
5743;DHT22;2896;53.500;10.020;2023-11-21T01:12:22;7.90;99.90
5743;DHT22;2896;53.500;10.020;2023-11-21T01:14:51;7.80;99.90
5743;DHT22;2896;53.500;10.020;2023-11-21T01:17:18;7.80;99.90
5743;DHT22;2896;53.500;10.020;2023-11-21T01:19:45;7.70;99.90
5743;DHT22;2896;53.500;10.020;2023-11-21T01:22:11;7.70;99.90
5743;DHT22;2896;53.500;10.020;2023-11-21T01:24:38;7.60;99.90
5743;DHT22;2896;53.500;10.020;2023-11-21T01:27:05;7.70;99.90
5743;DHT22;2896;53.500;10.020;2023-11-21T01:29:32;7.60;99.90
5743;DHT22;2896;53.500;10.020;2023-11-21T01:32:02;7.70;99.90
5743;DHT22;2896;53.500;10.020;2023-11-21T01:34:29;7.60;99.90
5743;DHT22;2896;53.500;10.020;2023-11-21T01:36:56;7.60;99.90
5743;DHT22;2896;53.500;10.020;2023-11-21T01:39:23;7.60;99.90
5743;DHT22;2896;53.500;10.020;2023-11-21T01:41:49;7.50;99.90
5743;DHT22;2896;53.500;10.020;2023-11-21T01:44:17;7.40;99.90
5743;DHT22;2896;53.500;10.020;2023-11-21T01:46:44;7.40;99.90
5743;DHT22;2896;53.500;10.020;2023-11-21T01:49:13;7.40;99.90
5743;DHT22;2896;53.500;10.020;2023-11-21T01:51:40;7.30;99.90
5743;DHT22;2896;53.500;10.020;2023-11-21T01:54:08;7.30;99.90
5743;DHT22;2896;53.500;10.020;2023-11-21T01:56:37;7.30;99.90
5743;DHT22;2896;53.500;10.020;2023-11-21T01:59:04;7.30;99.90
5743;DHT22;2896;53.500;10.020;2023-11-21T02:01:32;7.30;99.90
5743;DHT22;2896;53.500;10.020;2023-11-21T02:03:59;7.30;99.90
5743;DHT22;2896;53.500;10.020;2023-11-21T02:06:28;7.30;99.90
5743;DHT22;2896;53.500;10.020;2023-11-21T02:08:56;7.30;99.90
5743;DHT22;2896;53.500;10.020;2023-11-21T02:11:25;7.20;99.90
5743;DHT22;2896;53.500;10.020;2023-11-21T02:13:51;8.80;99.90
5743;DHT22;2896;53.500;10.020;2023-11-21T02:16:19;7.20;99.90
5743;DHT22;2896;53.500;10.020;2023-11-21T02:18:47;7.20;99.90
5743;DHT22;2896;53.500;10.020;2023-11-21T02:21:14;7.20;99.90
5743;DHT22;2896;53.500;10.020;2023-11-21T02:23:41;7.20;99.90
5743;DHT22;2896;53.500;10.020;2023-11-21T02:26:10;7.20;99.90
5743;DHT22;2896;53.500;10.020;2023-11-21T02:28:36;7.10;99.90
5743;DHT22;2896;53.500;10.020;2023-11-21T02:31:04;7.20;99.90
5743;DHT22;2896;53.500;10.020;2023-11-21T02:33:30;7.10;99.90
5743;DHT22;2896;53.500;10.020;2023-11-21T02:35:59;7.20;99.90
5743;DHT22;2896;53.500;10.020;2023-11-21T02:38:25;7.10;99.90
5743;DHT22;2896;53.500;10.020;2023-11-21T02:40:53;7.00;99.90
5743;DHT22;2896;53.500;10.020;2023-11-21T02:43:20;7.00;99.90
5743;DHT22;2896;53.500;10.020;2023-11-21T02:45:47;7.20;99.90
5743;DHT22;2896;53.500;10.020;2023-11-21T02:48:13;7.10;99.90
5743;DHT22;2896;53.500;10.020;2023-11-21T02:50:40;7.10;99.90
5743;DHT22;2896;53.500;10.020;2023-11-21T02:53:08;7.00;99.90
5743;DHT22;2896;53.500;10.020;2023-11-21T02:55:36;7.10;99.90
5743;DHT22;2896;53.500;10.020;2023-11-21T02:58:04;7.10;99.90
5743;DHT22;2896;53.500;10.020;2023-11-21T03:00:31;7.10;99.90
5743;DHT22;2896;53.500;10.020;2023-11-21T03:02:58;7.00;99.90
5743;DHT22;2896;53.500;10.020;2023-11-21T03:05:25;7.00;99.90
5743;DHT22;2896;53.500;10.020;2023-11-21T03:07:54;7.00;99.90
5743;DHT22;2896;53.500;10.020;2023-11-21T03:10:21;7.00;99.90
5743;DHT22;2896;53.500;10.020;2023-11-21T03:12:48;7.00;99.90
5743;DHT22;2896;53.500;10.020;2023-11-21T03:15:16;7.00;99.90
5743;DHT22;2896;53.500;10.020;2023-11-21T03:17:43;6.90;99.90
5743;DHT22;2896;53.500;10.020;2023-11-21T03:20:10;6.90;99.90
5743;DHT22;2896;53.500;10.020;2023-11-21T03:22:39;6.90;99.90
5743;DHT22;2896;53.500;10.020;2023-11-21T03:25:06;6.90;99.90
5743;DHT22;2896;53.500;10.020;2023-11-21T03:27:36;6.90;99.90
5743;DHT22;2896;53.500;10.020;2023-11-21T03:30:03;6.90;99.90
5743;DHT22;2896;53.500;10.020;2023-11-21T03:32:33;6.80;99.90
5743;DHT22;2896;53.500;10.020;2023-11-21T03:35:01;6.80;99.90
5743;DHT22;2896;53.500;10.020;2023-11-21T03:37:28;6.80;99.90
5743;DHT22;2896;53.500;10.020;2023-11-21T03:39:55;6.80;99.90
5743;DHT22;2896;53.500;10.020;2023-11-21T03:42:22;6.80;99.90
5743;DHT22;2896;53.500;10.020;2023-11-21T03:44:48;6.80;99.90
5743;DHT22;2896;53.500;10.020;2023-11-21T03:47:15;6.90;99.90
5743;DHT22;2896;53.500;10.020;2023-11-21T03:49:43;6.80;99.90
5743;DHT22;2896;53.500;10.020;2023-11-21T03:52:10;6.70;99.90
5743;DHT22;2896;53.500;10.020;2023-11-21T03:54:37;6.80;99.90
5743;DHT22;2896;53.500;10.020;2023-11-21T03:57:04;6.70;99.90
5743;DHT22;2896;53.500;10.020;2023-11-21T03:59:31;6.60;99.90
5743;DHT22;2896;53.500;10.020;2023-11-21T04:01:57;6.60;99.90
5743;DHT22;2896;53.500;10.020;2023-11-21T04:04:24;6.60;99.90
5743;DHT22;2896;53.500;10.020;2023-11-21T04:06:54;6.60;99.90
5743;DHT22;2896;53.500;10.020;2023-11-21T04:09:21;6.60;99.90
5743;DHT22;2896;53.500;10.020;2023-11-21T04:11:50;6.60;99.90
5743;DHT22;2896;53.500;10.020;2023-11-21T04:14:17;6.60;99.90
5743;DHT22;2896;53.500;10.020;2023-11-21T04:16:44;6.50;99.90
5743;DHT22;2896;53.500;10.020;2023-11-21T04:19:10;6.50;99.90
5743;DHT22;2896;53.500;10.020;2023-11-21T04:21:40;6.50;99.90
5743;DHT22;2896;53.500;10.020;2023-11-21T04:24:08;9.20;99.90
5743;DHT22;2896;53.500;10.020;2023-11-21T04:26:35;6.60;99.90
5743;DHT22;2896;53.500;10.020;2023-11-21T04:29:01;6.60;99.90
5743;DHT22;2896;53.500;10.020;2023-11-21T04:31:28;6.60;99.90
5743;DHT22;2896;53.500;10.020;2023-11-21T04:33:55;6.60;99.90
5743;DHT22;2896;53.500;10.020;2023-11-21T04:36:21;6.60;99.90
5743;DHT22;2896;53.500;10.020;2023-11-21T04:38:48;6.60;99.90
5743;DHT22;2896;53.500;10.020;2023-11-21T04:41:16;6.60;99.90
5743;DHT22;2896;53.500;10.020;2023-11-21T04:43:43;9.30;99.90
5743;DHT22;2896;53.500;10.020;2023-11-21T04:46:10;6.60;99.90
5743;DHT22;2896;53.500;10.020;2023-11-21T04:48:36;6.60;99.90
5743;DHT22;2896;53.500;10.020;2023-11-21T04:51:03;6.60;99.90
5743;DHT22;2896;53.500;10.020;2023-11-21T04:53:30;6.60;99.90
5743;DHT22;2896;53.500;10.020;2023-11-21T04:55:57;6.70;99.90
5743;DHT22;2896;53.500;10.020;2023-11-21T04:58:25;6.60;99.90
5743;DHT22;2896;53.500;10.020;2023-11-21T05:00:52;6.80;99.90
5743;DHT22;2896;53.500;10.020;2023-11-21T05:03:18;6.70;99.90
5743;DHT22;2896;53.500;10.020;2023-11-21T05:05:46;6.70;99.90
5743;DHT22;2896;53.500;10.020;2023-11-21T05:08:13;6.70;99.90
5743;DHT22;2896;53.500;10.020;2023-11-21T05:10:39;6.70;99.90
5743;DHT22;2896;53.500;10.020;2023-11-21T05:13:06;6.70;99.90
5743;DHT22;2896;53.500;10.020;2023-11-21T05:15:36;6.70;99.90
5743;DHT22;2896;53.500;10.020;2023-11-21T05:18:04;6.60;99.90
5743;DHT22;2896;53.500;10.020;2023-11-21T05:20:30;6.60;99.90
5743;DHT22;2896;53.500;10.020;2023-11-21T05:22:58;6.60;99.90
5743;DHT22;2896;53.500;10.020;2023-11-21T05:25:25;9.10;99.90
5743;DHT22;2896;53.500;10.020;2023-11-21T05:27:52;6.60;99.90
5743;DHT22;2896;53.500;10.020;2023-11-21T05:30:22;6.60;99.90
5743;DHT22;2896;53.500;10.020;2023-11-21T05:32:50;6.60;99.90
5743;DHT22;2896;53.500;10.020;2023-11-21T05:35:17;6.60;99.90
5743;DHT22;2896;53.500;10.020;2023-11-21T05:37:44;6.60;99.90
5743;DHT22;2896;53.500;10.020;2023-11-21T05:40:11;6.60;99.90
5743;DHT22;2896;53.500;10.020;2023-11-21T05:42:39;6.60;99.90
5743;DHT22;2896;53.500;10.020;2023-11-21T05:45:07;6.60;99.90
5743;DHT22;2896;53.500;10.020;2023-11-21T05:47:37;6.60;99.90
5743;DHT22;2896;53.500;10.020;2023-11-21T05:50:07;6.60;99.90
5743;DHT22;2896;53.500;10.020;2023-11-21T05:52:36;6.60;99.90
5743;DHT22;2896;53.500;10.020;2023-11-21T05:55:03;6.60;99.90
5743;DHT22;2896;53.500;10.020;2023-11-21T05:57:32;6.60;99.90
5743;DHT22;2896;53.500;10.020;2023-11-21T05:59:59;6.60;99.90
5743;DHT22;2896;53.500;10.020;2023-11-21T06:02:28;6.60;99.90
5743;DHT22;2896;53.500;10.020;2023-11-21T06:04:55;6.50;99.90
5743;DHT22;2896;53.500;10.020;2023-11-21T06:07:23;6.50;99.90
5743;DHT22;2896;53.500;10.020;2023-11-21T06:09:50;6.50;99.90
5743;DHT22;2896;53.500;10.020;2023-11-21T06:12:17;8.20;99.90
5743;DHT22;2896;53.500;10.020;2023-11-21T06:14:45;6.60;99.90
5743;DHT22;2896;53.500;10.020;2023-11-21T06:17:13;6.50;99.90
5743;DHT22;2896;53.500;10.020;2023-11-21T06:19:40;6.60;99.90
5743;DHT22;2896;53.500;10.020;2023-11-21T06:22:07;6.60;99.90
5743;DHT22;2896;53.500;10.020;2023-11-21T06:24:35;6.60;99.90
5743;DHT22;2896;53.500;10.020;2023-11-21T06:27:03;6.60;99.90
5743;DHT22;2896;53.500;10.020;2023-11-21T06:29:30;6.60;99.90
5743;DHT22;2896;53.500;10.020;2023-11-21T06:31:57;6.60;99.90
5743;DHT22;2896;53.500;10.020;2023-11-21T06:34:24;6.60;99.90
5743;DHT22;2896;53.500;10.020;2023-11-21T06:36:50;6.60;99.90
5743;DHT22;2896;53.500;10.020;2023-11-21T06:39:17;6.60;99.90
5743;DHT22;2896;53.500;10.020;2023-11-21T06:41:47;6.60;99.90
5743;DHT22;2896;53.500;10.020;2023-11-21T06:44:14;6.80;99.90
5743;DHT22;2896;53.500;10.020;2023-11-21T06:46:40;6.60;99.90
5743;DHT22;2896;53.500;10.020;2023-11-21T06:49:08;6.60;99.90
5743;DHT22;2896;53.500;10.020;2023-11-21T06:51:34;6.50;99.90
5743;DHT22;2896;53.500;10.020;2023-11-21T06:54:01;8.20;99.90
5743;DHT22;2896;53.500;10.020;2023-11-21T06:56:28;7.40;99.90
5743;DHT22;2896;53.500;10.020;2023-11-21T06:58:56;6.50;99.90
5743;DHT22;2896;53.500;10.020;2023-11-21T07:01:23;7.90;99.90
5743;DHT22;2896;53.500;10.020;2023-11-21T07:03:50;7.70;99.90
5743;DHT22;2896;53.500;10.020;2023-11-21T07:06:16;6.60;99.90
5743;DHT22;2896;53.500;10.020;2023-11-21T07:08:43;6.50;99.90
5743;DHT22;2896;53.500;10.020;2023-11-21T07:11:10;6.50;99.90
5743;DHT22;2896;53.500;10.020;2023-11-21T07:13:37;6.60;99.90
5743;DHT22;2896;53.500;10.020;2023-11-21T07:16:06;6.60;99.90
5743;DHT22;2896;53.500;10.020;2023-11-21T07:18:32;6.60;99.90
5743;DHT22;2896;53.500;10.020;2023-11-21T07:20:59;6.60;99.90
5743;DHT22;2896;53.500;10.020;2023-11-21T07:23:26;7.00;99.90
5743;DHT22;2896;53.500;10.020;2023-11-21T07:25:52;6.60;99.90
5743;DHT22;2896;53.500;10.020;2023-11-21T07:28:19;6.70;99.90
5743;DHT22;2896;53.500;10.020;2023-11-21T07:30:46;6.60;99.90
5743;DHT22;2896;53.500;10.020;2023-11-21T07:33:14;6.60;99.90
5743;DHT22;2896;53.500;10.020;2023-11-21T07:35:41;6.60;99.90
5743;DHT22;2896;53.500;10.020;2023-11-21T07:38:08;6.60;99.90
5743;DHT22;2896;53.500;10.020;2023-11-21T07:40:35;6.60;99.90
5743;DHT22;2896;53.500;10.020;2023-11-21T07:43:02;6.60;99.90
5743;DHT22;2896;53.500;10.020;2023-11-21T07:45:28;6.70;99.90
5743;DHT22;2896;53.500;10.020;2023-11-21T07:47:55;6.70;99.90
5743;DHT22;2896;53.500;10.020;2023-11-21T07:50:23;6.90;99.90
5743;DHT22;2896;53.500;10.020;2023-11-21T07:52:50;6.70;99.90
5743;DHT22;2896;53.500;10.020;2023-11-21T07:55:17;6.70;99.90
5743;DHT22;2896;53.500;10.020;2023-11-21T07:57:43;6.80;99.90
5743;DHT22;2896;53.500;10.020;2023-11-21T08:00:11;6.80;99.90
5743;DHT22;2896;53.500;10.020;2023-11-21T08:02:38;6.90;99.90
5743;DHT22;2896;53.500;10.020;2023-11-21T08:05:07;6.90;99.90
5743;DHT22;2896;53.500;10.020;2023-11-21T08:07:35;6.90;99.90
5743;DHT22;2896;53.500;10.020;2023-11-21T08:10:02;6.80;99.90
5743;DHT22;2896;53.500;10.020;2023-11-21T08:12:30;6.90;99.90
5743;DHT22;2896;53.500;10.020;2023-11-21T08:14:57;6.90;99.90
5743;DHT22;2896;53.500;10.020;2023-11-21T08:17:24;6.90;99.90
5743;DHT22;2896;53.500;10.020;2023-11-21T08:19:50;7.80;99.90
5743;DHT22;2896;53.500;10.020;2023-11-21T08:22:18;6.90;99.90
5743;DHT22;2896;53.500;10.020;2023-11-21T08:24:46;7.00;99.90
5743;DHT22;2896;53.500;10.020;2023-11-21T08:27:13;7.00;99.90
5743;DHT22;2896;53.500;10.020;2023-11-21T08:29:41;7.10;99.90
5743;DHT22;2896;53.500;10.020;2023-11-21T08:32:08;8.70;99.90
5743;DHT22;2896;53.500;10.020;2023-11-21T08:34:35;7.30;99.90
5743;DHT22;2896;53.500;10.020;2023-11-21T08:37:02;7.40;97.50
5743;DHT22;2896;53.500;10.020;2023-11-21T08:39:28;7.30;1.00
5743;DHT22;2896;53.500;10.020;2023-11-21T08:41:57;7.40;1.00
5743;DHT22;2896;53.500;10.020;2023-11-21T08:44:24;8.90;1.00
5743;DHT22;2896;53.500;10.020;2023-11-21T08:46:50;7.70;1.00
5743;DHT22;2896;53.500;10.020;2023-11-21T08:49:17;7.60;99.90
5743;DHT22;2896;53.500;10.020;2023-11-21T08:51:44;7.60;99.90
5743;DHT22;2896;53.500;10.020;2023-11-21T08:54:11;7.60;99.90
5743;DHT22;2896;53.500;10.020;2023-11-21T08:56:38;6.80;99.90
5743;DHT22;2896;53.500;10.020;2023-11-21T08:59:06;7.70;99.90
5743;DHT22;2896;53.500;10.020;2023-11-21T09:01:33;7.50;99.90
5743;DHT22;2896;53.500;10.020;2023-11-21T09:04:00;7.40;99.90
5743;DHT22;2896;53.500;10.020;2023-11-21T09:08:58;7.40;99.90
5743;DHT22;2896;53.500;10.020;2023-11-21T09:11:24;7.30;99.90
5743;DHT22;2896;53.500;10.020;2023-11-21T09:13:56;7.30;1.00
5743;DHT22;2896;53.500;10.020;2023-11-21T09:16:25;7.30;99.90
5743;DHT22;2896;53.500;10.020;2023-11-21T09:18:52;7.30;99.90
5743;DHT22;2896;53.500;10.020;2023-11-21T09:21:18;7.30;80.40
5743;DHT22;2896;53.500;10.020;2023-11-21T09:23:45;7.30;76.90
5743;DHT22;2896;53.500;10.020;2023-11-21T09:26:11;7.40;1.00
5743;DHT22;2896;53.500;10.020;2023-11-21T09:28:40;7.30;1.00
5743;DHT22;2896;53.500;10.020;2023-11-21T09:31:09;7.30;1.00
5743;DHT22;2896;53.500;10.020;2023-11-21T09:33:37;7.20;2.90
5743;DHT22;2896;53.500;10.020;2023-11-21T09:36:04;7.30;99.90
5743;DHT22;2896;53.500;10.020;2023-11-21T09:38:31;7.30;99.90
5743;DHT22;2896;53.500;10.020;2023-11-21T09:40:58;7.30;99.90
5743;DHT22;2896;53.500;10.020;2023-11-21T09:43:27;7.30;99.90
5743;DHT22;2896;53.500;10.020;2023-11-21T09:46:00;7.30;99.90
5743;DHT22;2896;53.500;10.020;2023-11-21T09:48:29;7.30;99.90
5743;DHT22;2896;53.500;10.020;2023-11-21T09:50:59;7.40;99.90
5743;DHT22;2896;53.500;10.020;2023-11-21T09:53:31;7.40;1.00
5743;DHT22;2896;53.500;10.020;2023-11-21T09:55:59;7.50;99.90
5743;DHT22;2896;53.500;10.020;2023-11-21T09:58:28;7.50;99.90
5743;DHT22;2896;53.500;10.020;2023-11-21T10:00:55;7.50;99.90
5743;DHT22;2896;53.500;10.020;2023-11-21T10:03:25;7.60;99.90
5743;DHT22;2896;53.500;10.020;2023-11-21T10:05:53;7.70;99.90
5743;DHT22;2896;53.500;10.020;2023-11-21T10:08:23;7.60;99.90
5743;DHT22;2896;53.500;10.020;2023-11-21T10:10:54;7.70;99.90
5743;DHT22;2896;53.500;10.020;2023-11-21T10:13:21;7.70;99.90
5743;DHT22;2896;53.500;10.020;2023-11-21T10:15:50;7.70;99.90
5743;DHT22;2896;53.500;10.020;2023-11-21T10:18:18;7.70;1.00
5743;DHT22;2896;53.500;10.020;2023-11-21T10:20:46;7.60;1.00
5743;DHT22;2896;53.500;10.020;2023-11-21T10:23:17;7.60;99.90
5743;DHT22;2896;53.500;10.020;2023-11-21T10:25:46;7.70;99.90
5743;DHT22;2896;53.500;10.020;2023-11-21T10:28:12;7.70;99.90
5743;DHT22;2896;53.500;10.020;2023-11-21T10:30:39;7.70;99.90
5743;DHT22;2896;53.500;10.020;2023-11-21T10:33:07;7.80;99.90
5743;DHT22;2896;53.500;10.020;2023-11-21T10:35:43;7.90;99.90
5743;DHT22;2896;53.500;10.020;2023-11-21T10:38:14;8.00;1.00
5743;DHT22;2896;53.500;10.020;2023-11-21T10:40:41;8.10;99.90
5743;DHT22;2896;53.500;10.020;2023-11-21T10:43:11;8.20;99.90
5743;DHT22;2896;53.500;10.020;2023-11-21T10:45:39;8.20;9.30
5743;DHT22;2896;53.500;10.020;2023-11-21T10:48:06;8.20;1.00
5743;DHT22;2896;53.500;10.020;2023-11-21T10:50:34;8.20;1.00
5743;DHT22;2896;53.500;10.020;2023-11-21T10:53:02;8.10;1.00
5743;DHT22;2896;53.500;10.020;2023-11-21T10:55:29;8.10;99.90
5743;DHT22;2896;53.500;10.020;2023-11-21T10:57:58;8.10;1.00
5743;DHT22;2896;53.500;10.020;2023-11-21T11:00:29;8.20;1.00
5743;DHT22;2896;53.500;10.020;2023-11-21T11:02:55;8.20;1.00
5743;DHT22;2896;53.500;10.020;2023-11-21T11:05:25;8.30;1.00
5743;DHT22;2896;53.500;10.020;2023-11-21T11:07:58;10.10;1.00
5743;DHT22;2896;53.500;10.020;2023-11-21T11:10:25;8.30;1.00
5743;DHT22;2896;53.500;10.020;2023-11-21T11:12:53;8.20;1.00
5743;DHT22;2896;53.500;10.020;2023-11-21T11:15:21;8.20;99.90
5743;DHT22;2896;53.500;10.020;2023-11-21T11:17:49;8.20;1.00
5743;DHT22;2896;53.500;10.020;2023-11-21T11:20:17;8.00;1.00
5743;DHT22;2896;53.500;10.020;2023-11-21T11:22:54;8.10;99.90
5743;DHT22;2896;53.500;10.020;2023-11-21T11:25:38;7.90;1.00
5743;DHT22;2896;53.500;10.020;2023-11-21T11:28:11;8.00;1.00
5743;DHT22;2896;53.500;10.020;2023-11-21T11:30:47;8.00;99.90
5743;DHT22;2896;53.500;10.020;2023-11-21T11:33:25;8.10;99.90
5743;DHT22;2896;53.500;10.020;2023-11-21T11:36:00;8.10;1.00
5743;DHT22;2896;53.500;10.020;2023-11-21T11:38:31;8.00;99.90
5743;DHT22;2896;53.500;10.020;2023-11-21T11:41:01;8.00;99.90
5743;DHT22;2896;53.500;10.020;2023-11-21T11:43:29;7.90;16.70
5743;DHT22;2896;53.500;10.020;2023-11-21T11:45:59;7.90;99.90
5743;DHT22;2896;53.500;10.020;2023-11-21T11:48:30;8.00;22.90
5743;DHT22;2896;53.500;10.020;2023-11-21T11:51:02;8.30;96.30
5743;DHT22;2896;53.500;10.020;2023-11-21T11:53:35;8.30;1.00
5743;DHT22;2896;53.500;10.020;2023-11-21T11:56:30;8.20;1.00
5743;DHT22;2896;53.500;10.020;2023-11-21T11:59:02;8.40;1.00
5743;DHT22;2896;53.500;10.020;2023-11-21T12:01:31;8.60;99.90
5743;DHT22;2896;53.500;10.020;2023-11-21T12:04:24;8.60;1.00
5743;DHT22;2896;53.500;10.020;2023-11-21T12:06:59;8.80;99.90
5743;DHT22;2896;53.500;10.020;2023-11-21T12:09:28;8.70;63.80
5743;DHT22;2896;53.500;10.020;2023-11-21T12:11:55;8.70;1.00
5743;DHT22;2896;53.500;10.020;2023-11-21T12:14:22;8.70;1.00
5743;DHT22;2896;53.500;10.020;2023-11-21T12:16:49;8.40;99.90
5743;DHT22;2896;53.500;10.020;2023-11-21T12:19:17;8.50;99.90
5743;DHT22;2896;53.500;10.020;2023-11-21T12:21:45;8.30;99.90
5743;DHT22;2896;53.500;10.020;2023-11-21T12:24:11;8.20;99.90
5743;DHT22;2896;53.500;10.020;2023-11-21T12:26:39;8.10;99.90
5743;DHT22;2896;53.500;10.020;2023-11-21T12:29:06;8.20;99.90
5743;DHT22;2896;53.500;10.020;2023-11-21T12:31:34;8.10;99.90
5743;DHT22;2896;53.500;10.020;2023-11-21T12:34:01;8.20;91.20
5743;DHT22;2896;53.500;10.020;2023-11-21T12:36:29;7.90;71.50
5743;DHT22;2896;53.500;10.020;2023-11-21T12:38:57;7.90;96.60
5743;DHT22;2896;53.500;10.020;2023-11-21T12:41:24;7.70;63.00
5743;DHT22;2896;53.500;10.020;2023-11-21T12:43:51;7.80;89.30
5743;DHT22;2896;53.500;10.020;2023-11-21T12:46:18;7.80;19.90
5743;DHT22;2896;53.500;10.020;2023-11-21T12:48:46;7.70;48.00
5743;DHT22;2896;53.500;10.020;2023-11-21T12:51:13;7.70;43.90
5743;DHT22;2896;53.500;10.020;2023-11-21T12:53:42;7.70;60.80
5743;DHT22;2896;53.500;10.020;2023-11-21T12:56:11;7.70;99.90
5743;DHT22;2896;53.500;10.020;2023-11-21T12:58:39;7.70;99.90
5743;DHT22;2896;53.500;10.020;2023-11-21T13:01:07;8.80;99.90
5743;DHT22;2896;53.500;10.020;2023-11-21T13:03:37;7.70;99.90
5743;DHT22;2896;53.500;10.020;2023-11-21T13:06:06;7.60;99.90
5743;DHT22;2896;53.500;10.020;2023-11-21T13:08:33;7.50;99.90
5743;DHT22;2896;53.500;10.020;2023-11-21T13:11:00;7.50;99.90
5743;DHT22;2896;53.500;10.020;2023-11-21T13:13:29;7.40;99.90
5743;DHT22;2896;53.500;10.020;2023-11-21T13:15:58;7.40;99.90
5743;DHT22;2896;53.500;10.020;2023-11-21T13:18:28;7.40;99.90
5743;DHT22;2896;53.500;10.020;2023-11-21T13:20:57;7.40;99.90
5743;DHT22;2896;53.500;10.020;2023-11-21T13:23:25;7.30;99.90
5743;DHT22;2896;53.500;10.020;2023-11-21T13:25:52;7.20;99.90
5743;DHT22;2896;53.500;10.020;2023-11-21T13:28:18;7.30;99.90
5743;DHT22;2896;53.500;10.020;2023-11-21T13:30:48;7.20;99.90
5743;DHT22;2896;53.500;10.020;2023-11-21T13:33:17;7.20;99.90
5743;DHT22;2896;53.500;10.020;2023-11-21T13:35:47;7.20;99.90
5743;DHT22;2896;53.500;10.020;2023-11-21T13:38:17;7.20;99.90
5743;DHT22;2896;53.500;10.020;2023-11-21T13:40:49;7.20;99.90
5743;DHT22;2896;53.500;10.020;2023-11-21T13:43:19;7.20;99.90
5743;DHT22;2896;53.500;10.020;2023-11-21T13:45:49;7.20;99.90
5743;DHT22;2896;53.500;10.020;2023-11-21T13:48:17;7.30;99.90
5743;DHT22;2896;53.500;10.020;2023-11-21T13:50:47;7.20;99.90
5743;DHT22;2896;53.500;10.020;2023-11-21T13:53:23;7.30;99.90
5743;DHT22;2896;53.500;10.020;2023-11-21T13:55:50;7.20;99.90
5743;DHT22;2896;53.500;10.020;2023-11-21T13:58:19;7.20;99.90
5743;DHT22;2896;53.500;10.020;2023-11-21T14:00:51;7.10;99.90
5743;DHT22;2896;53.500;10.020;2023-11-21T14:03:22;7.00;99.90
5743;DHT22;2896;53.500;10.020;2023-11-21T14:05:57;7.00;99.90
5743;DHT22;2896;53.500;10.020;2023-11-21T14:08:26;7.10;1.00
5743;DHT22;2896;53.500;10.020;2023-11-21T14:10:54;7.00;1.00
5743;DHT22;2896;53.500;10.020;2023-11-21T14:13:23;6.90;1.00
5743;DHT22;2896;53.500;10.020;2023-11-21T14:15:51;9.30;1.00
5743;DHT22;2896;53.500;10.020;2023-11-21T14:18:24;6.80;1.00
5743;DHT22;2896;53.500;10.020;2023-11-21T14:20:55;6.80;1.00
5743;DHT22;2896;53.500;10.020;2023-11-21T14:23:22;6.90;1.00
5743;DHT22;2896;53.500;10.020;2023-11-21T14:25:49;6.90;1.00
5743;DHT22;2896;53.500;10.020;2023-11-21T14:28:16;6.80;1.00
5743;DHT22;2896;53.500;10.020;2023-11-21T14:30:43;6.80;1.00
5743;DHT22;2896;53.500;10.020;2023-11-21T14:33:10;6.80;99.90
5743;DHT22;2896;53.500;10.020;2023-11-21T14:35:37;6.90;1.00
5743;DHT22;2896;53.500;10.020;2023-11-21T14:38:04;6.80;99.90
5743;DHT22;2896;53.500;10.020;2023-11-21T14:40:31;6.80;99.90
5743;DHT22;2896;53.500;10.020;2023-11-21T14:43:00;6.80;99.90
5743;DHT22;2896;53.500;10.020;2023-11-21T14:45:28;6.70;99.90
5743;DHT22;2896;53.500;10.020;2023-11-21T14:47:55;6.60;1.00
5743;DHT22;2896;53.500;10.020;2023-11-21T14:50:33;6.60;1.00
5743;DHT22;2896;53.500;10.020;2023-11-21T14:53:16;6.60;99.90
5743;DHT22;2896;53.500;10.020;2023-11-21T14:55:49;6.50;99.90
5743;DHT22;2896;53.500;10.020;2023-11-21T14:58:23;6.50;99.90
5743;DHT22;2896;53.500;10.020;2023-11-21T15:00:53;6.50;99.90
5743;DHT22;2896;53.500;10.020;2023-11-21T15:03:24;6.50;99.90
5743;DHT22;2896;53.500;10.020;2023-11-21T15:06:09;6.50;99.90
5743;DHT22;2896;53.500;10.020;2023-11-21T15:08:48;6.40;99.90
5743;DHT22;2896;53.500;10.020;2023-11-21T15:11:19;6.40;99.90
5743;DHT22;2896;53.500;10.020;2023-11-21T15:13:47;6.40;99.90
5743;DHT22;2896;53.500;10.020;2023-11-21T15:16:16;6.30;99.90
5743;DHT22;2896;53.500;10.020;2023-11-21T15:18:42;6.30;99.90
5743;DHT22;2896;53.500;10.020;2023-11-21T15:21:10;6.30;99.90
5743;DHT22;2896;53.500;10.020;2023-11-21T15:23:37;6.30;99.90
5743;DHT22;2896;53.500;10.020;2023-11-21T15:26:06;6.20;99.90
5743;DHT22;2896;53.500;10.020;2023-11-21T15:28:34;8.30;99.90
5743;DHT22;2896;53.500;10.020;2023-11-21T15:31:01;6.20;99.90
5743;DHT22;2896;53.500;10.020;2023-11-21T15:33:28;6.10;99.90
5743;DHT22;2896;53.500;10.020;2023-11-21T15:35:54;5.60;99.90
5743;DHT22;2896;53.500;10.020;2023-11-21T15:38:22;6.00;99.90
5743;DHT22;2896;53.500;10.020;2023-11-21T15:40:49;5.90;1.00
5743;DHT22;2896;53.500;10.020;2023-11-21T15:43:20;6.00;1.00
5743;DHT22;2896;53.500;10.020;2023-11-21T15:45:46;5.80;1.00
5743;DHT22;2896;53.500;10.020;2023-11-21T15:48:13;5.80;1.00
5743;DHT22;2896;53.500;10.020;2023-11-21T15:50:42;5.80;1.00
5743;DHT22;2896;53.500;10.020;2023-11-21T15:53:08;5.80;1.00
5743;DHT22;2896;53.500;10.020;2023-11-21T15:55:37;5.80;1.00
5743;DHT22;2896;53.500;10.020;2023-11-21T15:58:07;5.80;1.00
5743;DHT22;2896;53.500;10.020;2023-11-21T16:00:34;5.80;1.00
5743;DHT22;2896;53.500;10.020;2023-11-21T16:03:04;7.50;1.00
5743;DHT22;2896;53.500;10.020;2023-11-21T16:05:31;5.70;1.00
5743;DHT22;2896;53.500;10.020;2023-11-21T16:07:57;5.70;1.00
5743;DHT22;2896;53.500;10.020;2023-11-21T16:10:24;5.70;1.00
5743;DHT22;2896;53.500;10.020;2023-11-21T16:12:52;5.70;1.00